sensor_id;sensor_type;location;lat;lon;timestamp;P1;durP1;ratioP1;P2;durP2;ratioP2
6013;SDS011;3035;49.928;8.410;2023-04-24T00:02:11;1.80;;;1.20;;
6013;SDS011;3035;49.928;8.410;2023-04-24T00:04:41;3.63;;;1.00;;
6013;SDS011;3035;49.928;8.410;2023-04-24T00:07:12;1.13;;;1.03;;
6013;SDS011;3035;49.928;8.410;2023-04-24T00:09:41;2.13;;;1.33;;
6013;SDS011;3035;49.928;8.410;2023-04-24T00:12:09;1.93;;;1.30;;
6013;SDS011;3035;49.928;8.410;2023-04-24T00:14:37;1.30;;;1.07;;
6013;SDS011;3035;49.928;8.410;2023-04-24T00:17:05;1.93;;;1.17;;
6013;SDS011;3035;49.928;8.410;2023-04-24T00:19:34;1.27;;;1.00;;
6013;SDS011;3035;49.928;8.410;2023-04-24T00:22:03;3.00;;;1.17;;
6013;SDS011;3035;49.928;8.410;2023-04-24T00:24:31;2.40;;;1.03;;
6013;SDS011;3035;49.928;8.410;2023-04-24T00:27:00;2.20;;;1.23;;
6013;SDS011;3035;49.928;8.410;2023-04-24T00:29:28;2.60;;;1.57;;
6013;SDS011;3035;49.928;8.410;2023-04-24T00:31:57;2.30;;;1.20;;
6013;SDS011;3035;49.928;8.410;2023-04-24T00:34:25;1.00;;;1.00;;
6013;SDS011;3035;49.928;8.410;2023-04-24T00:36:54;1.40;;;1.30;;
6013;SDS011;3035;49.928;8.410;2023-04-24T00:39:22;1.67;;;1.20;;
6013;SDS011;3035;49.928;8.410;2023-04-24T00:41:50;1.43;;;1.30;;
6013;SDS011;3035;49.928;8.410;2023-04-24T00:44:19;1.50;;;1.40;;
6013;SDS011;3035;49.928;8.410;2023-04-24T00:46:48;2.77;;;1.40;;
6013;SDS011;3035;49.928;8.410;2023-04-24T00:49:18;2.50;;;1.10;;
6013;SDS011;3035;49.928;8.410;2023-04-24T00:51:45;3.70;;;1.70;;
6013;SDS011;3035;49.928;8.410;2023-04-24T00:54:13;2.93;;;1.77;;
6013;SDS011;3035;49.928;8.410;2023-04-24T00:56:43;6.50;;;1.30;;
6013;SDS011;3035;49.928;8.410;2023-04-24T00:59:12;1.67;;;1.30;;
6013;SDS011;3035;49.928;8.410;2023-04-24T01:01:41;3.27;;;1.37;;
6013;SDS011;3035;49.928;8.410;2023-04-24T01:04:11;2.03;;;1.47;;
6013;SDS011;3035;49.928;8.410;2023-04-24T01:06:39;2.97;;;1.57;;
6013;SDS011;3035;49.928;8.410;2023-04-24T01:09:07;1.63;;;1.40;;
6013;SDS011;3035;49.928;8.410;2023-04-24T01:11:36;3.33;;;1.57;;
6013;SDS011;3035;49.928;8.410;2023-04-24T01:14:04;4.17;;;1.37;;
6013;SDS011;3035;49.928;8.410;2023-04-24T01:16:33;2.03;;;1.50;;
6013;SDS011;3035;49.928;8.410;2023-04-24T01:19:02;1.33;;;1.23;;
6013;SDS011;3035;49.928;8.410;2023-04-24T01:21:30;2.17;;;1.23;;
6013;SDS011;3035;49.928;8.410;2023-04-24T01:23:58;4.07;;;1.40;;
6013;SDS011;3035;49.928;8.410;2023-04-24T01:26:26;1.63;;;1.37;;
6013;SDS011;3035;49.928;8.410;2023-04-24T01:28:55;5.53;;;1.10;;
6013;SDS011;3035;49.928;8.410;2023-04-24T01:31:23;2.40;;;2.20;;
6013;SDS011;3035;49.928;8.410;2023-04-24T01:33:52;1.33;;;1.20;;
6013;SDS011;3035;49.928;8.410;2023-04-24T01:36:20;5.37;;;1.30;;
6013;SDS011;3035;49.928;8.410;2023-04-24T01:38:49;2.07;;;1.27;;
6013;SDS011;3035;49.928;8.410;2023-04-24T01:41:18;1.00;;;1.00;;
6013;SDS011;3035;49.928;8.410;2023-04-24T01:43:46;2.23;;;1.40;;
6013;SDS011;3035;49.928;8.410;2023-04-24T01:46:15;7.37;;;1.63;;
6013;SDS011;3035;49.928;8.410;2023-04-24T01:48:44;1.97;;;1.47;;
6013;SDS011;3035;49.928;8.410;2023-04-24T01:51:11;8.90;;;1.50;;
6013;SDS011;3035;49.928;8.410;2023-04-24T01:53:39;2.10;;;1.23;;
6013;SDS011;3035;49.928;8.410;2023-04-24T01:56:08;11.53;;;2.97;;
6013;SDS011;3035;49.928;8.410;2023-04-24T01:58:36;2.63;;;1.20;;
6013;SDS011;3035;49.928;8.410;2023-04-24T02:01:05;4.60;;;1.40;;
6013;SDS011;3035;49.928;8.410;2023-04-24T02:03:32;1.93;;;1.23;;
6013;SDS011;3035;49.928;8.410;2023-04-24T02:06:00;1.43;;;1.20;;
6013;SDS011;3035;49.928;8.410;2023-04-24T02:08:30;1.53;;;1.27;;
6013;SDS011;3035;49.928;8.410;2023-04-24T02:10:58;4.60;;;1.57;;
6013;SDS011;3035;49.928;8.410;2023-04-24T02:13:27;5.17;;;1.20;;
6013;SDS011;3035;49.928;8.410;2023-04-24T02:15:55;1.47;;;1.37;;
6013;SDS011;3035;49.928;8.410;2023-04-24T02:18:23;1.37;;;1.27;;
6013;SDS011;3035;49.928;8.410;2023-04-24T02:20:51;2.60;;;1.30;;
6013;SDS011;3035;49.928;8.410;2023-04-24T02:23:20;3.73;;;1.30;;
6013;SDS011;3035;49.928;8.410;2023-04-24T02:25:49;2.27;;;1.40;;
6013;SDS011;3035;49.928;8.410;2023-04-24T02:28:18;2.83;;;1.17;;
6013;SDS011;3035;49.928;8.410;2023-04-24T02:30:46;1.57;;;1.37;;
6013;SDS011;3035;49.928;8.410;2023-04-24T02:33:15;6.10;;;1.27;;
6013;SDS011;3035;49.928;8.410;2023-04-24T02:35:43;2.80;;;1.30;;
6013;SDS011;3035;49.928;8.410;2023-04-24T02:38:12;1.10;;;1.00;;
6013;SDS011;3035;49.928;8.410;2023-04-24T02:40:40;3.13;;;1.37;;
6013;SDS011;3035;49.928;8.410;2023-04-24T02:43:09;3.90;;;1.40;;
6013;SDS011;3035;49.928;8.410;2023-04-24T02:45:37;1.57;;;0.93;;
6013;SDS011;3035;49.928;8.410;2023-04-24T02:48:05;1.77;;;1.10;;
6013;SDS011;3035;49.928;8.410;2023-04-24T02:50:34;3.17;;;2.20;;
6013;SDS011;3035;49.928;8.410;2023-04-24T02:53:02;8.53;;;1.30;;
6013;SDS011;3035;49.928;8.410;2023-04-24T02:55:30;3.17;;;1.33;;
6013;SDS011;3035;49.928;8.410;2023-04-24T02:57:59;3.57;;;0.90;;
6013;SDS011;3035;49.928;8.410;2023-04-24T03:00:28;2.30;;;1.23;;
6013;SDS011;3035;49.928;8.410;2023-04-24T03:02:56;1.87;;;1.10;;
6013;SDS011;3035;49.928;8.410;2023-04-24T03:05:25;3.33;;;1.03;;
6013;SDS011;3035;49.928;8.410;2023-04-24T03:07:54;1.00;;;1.00;;
6013;SDS011;3035;49.928;8.410;2023-04-24T03:10:22;1.87;;;1.00;;
6013;SDS011;3035;49.928;8.410;2023-04-24T03:12:50;1.30;;;1.20;;
6013;SDS011;3035;49.928;8.410;2023-04-24T03:15:19;1.07;;;0.80;;
6013;SDS011;3035;49.928;8.410;2023-04-24T03:17:47;1.07;;;0.97;;
6013;SDS011;3035;49.928;8.410;2023-04-24T03:20:15;5.40;;;0.93;;
6013;SDS011;3035;49.928;8.410;2023-04-24T03:22:43;1.20;;;0.90;;
6013;SDS011;3035;49.928;8.410;2023-04-24T03:25:11;1.40;;;1.30;;
6013;SDS011;3035;49.928;8.410;2023-04-24T03:27:40;1.00;;;0.87;;
6013;SDS011;3035;49.928;8.410;2023-04-24T03:30:09;0.80;;;0.80;;
6013;SDS011;3035;49.928;8.410;2023-04-24T03:32:37;0.93;;;0.90;;
6013;SDS011;3035;49.928;8.410;2023-04-24T03:35:06;1.90;;;1.13;;
6013;SDS011;3035;49.928;8.410;2023-04-24T03:37:36;1.20;;;1.10;;
6013;SDS011;3035;49.928;8.410;2023-04-24T03:40:04;2.10;;;1.30;;
6013;SDS011;3035;49.928;8.410;2023-04-24T03:42:33;2.40;;;1.20;;
6013;SDS011;3035;49.928;8.410;2023-04-24T03:45:02;1.00;;;0.90;;
6013;SDS011;3035;49.928;8.410;2023-04-24T03:47:32;2.10;;;1.40;;
6013;SDS011;3035;49.928;8.410;2023-04-24T03:50:01;1.30;;;1.20;;
6013;SDS011;3035;49.928;8.410;2023-04-24T03:52:29;1.30;;;1.20;;
6013;SDS011;3035;49.928;8.410;2023-04-24T03:54:57;1.40;;;1.30;;
6013;SDS011;3035;49.928;8.410;2023-04-24T03:57:25;1.20;;;1.10;;
6013;SDS011;3035;49.928;8.410;2023-04-24T03:59:54;1.50;;;1.30;;
6013;SDS011;3035;49.928;8.410;2023-04-24T04:02:23;2.20;;;1.20;;
6013;SDS011;3035;49.928;8.410;2023-04-24T04:04:51;1.67;;;1.20;;
6013;SDS011;3035;49.928;8.410;2023-04-24T04:07:20;1.50;;;1.40;;
6013;SDS011;3035;49.928;8.410;2023-04-24T04:09:49;1.17;;;1.13;;
6013;SDS011;3035;49.928;8.410;2023-04-24T04:12:17;1.70;;;1.20;;
6013;SDS011;3035;49.928;8.410;2023-04-24T04:14:46;1.40;;;1.30;;
6013;SDS011;3035;49.928;8.410;2023-04-24T04:17:14;1.20;;;1.10;;
6013;SDS011;3035;49.928;8.410;2023-04-24T04:19:43;2.30;;;1.20;;
6013;SDS011;3035;49.928;8.410;2023-04-24T04:22:11;2.50;;;1.53;;
6013;SDS011;3035;49.928;8.410;2023-04-24T04:24:40;2.80;;;1.20;;
6013;SDS011;3035;49.928;8.410;2023-04-24T04:27:09;1.37;;;1.27;;
6013;SDS011;3035;49.928;8.410;2023-04-24T04:29:37;1.97;;;1.37;;
6013;SDS011;3035;49.928;8.410;2023-04-24T04:32:06;1.30;;;1.10;;
6013;SDS011;3035;49.928;8.410;2023-04-24T04:34:34;3.13;;;1.60;;
6013;SDS011;3035;49.928;8.410;2023-04-24T04:37:03;2.70;;;1.60;;
6013;SDS011;3035;49.928;8.410;2023-04-24T04:39:31;4.30;;;1.50;;
6013;SDS011;3035;49.928;8.410;2023-04-24T04:42:00;2.77;;;1.60;;
6013;SDS011;3035;49.928;8.410;2023-04-24T04:44:28;1.53;;;1.43;;
6013;SDS011;3035;49.928;8.410;2023-04-24T04:46:56;1.30;;;1.20;;
6013;SDS011;3035;49.928;8.410;2023-04-24T04:49:25;2.43;;;1.40;;
6013;SDS011;3035;49.928;8.410;2023-04-24T04:51:54;2.23;;;2.00;;
6013;SDS011;3035;49.928;8.410;2023-04-24T04:54:23;1.90;;;1.60;;
6013;SDS011;3035;49.928;8.410;2023-04-24T04:56:51;7.83;;;1.57;;
6013;SDS011;3035;49.928;8.410;2023-04-24T04:59:19;1.80;;;1.70;;
6013;SDS011;3035;49.928;8.410;2023-04-24T05:01:47;1.70;;;1.60;;
6013;SDS011;3035;49.928;8.410;2023-04-24T05:04:16;12.40;;;1.90;;
6013;SDS011;3035;49.928;8.410;2023-04-24T05:06:45;2.23;;;1.57;;
6013;SDS011;3035;49.928;8.410;2023-04-24T05:09:13;1.97;;;1.77;;
6013;SDS011;3035;49.928;8.410;2023-04-24T05:11:41;2.17;;;1.97;;
6013;SDS011;3035;49.928;8.410;2023-04-24T05:14:11;3.93;;;1.80;;
6013;SDS011;3035;49.928;8.410;2023-04-24T05:16:40;2.00;;;1.80;;
6013;SDS011;3035;49.928;8.410;2023-04-24T05:19:08;3.70;;;1.73;;
6013;SDS011;3035;49.928;8.410;2023-04-24T05:21:36;2.20;;;1.83;;
6013;SDS011;3035;49.928;8.410;2023-04-24T05:24:04;2.60;;;1.87;;
6013;SDS011;3035;49.928;8.410;2023-04-24T05:26:33;2.60;;;2.10;;
6013;SDS011;3035;49.928;8.410;2023-04-24T05:29:02;2.83;;;1.80;;
6013;SDS011;3035;49.928;8.410;2023-04-24T05:31:31;2.03;;;1.93;;
6013;SDS011;3035;49.928;8.410;2023-04-24T05:34:00;1.83;;;1.60;;
6013;SDS011;3035;49.928;8.410;2023-04-24T05:36:28;4.87;;;2.20;;
6013;SDS011;3035;49.928;8.410;2023-04-24T05:38:57;2.30;;;1.73;;
6013;SDS011;3035;49.928;8.410;2023-04-24T05:41:25;2.50;;;2.30;;
6013;SDS011;3035;49.928;8.410;2023-04-24T05:43:53;2.63;;;2.27;;
6013;SDS011;3035;49.928;8.410;2023-04-24T05:46:22;2.87;;;1.87;;
6013;SDS011;3035;49.928;8.410;2023-04-24T05:48:51;2.67;;;2.17;;
6013;SDS011;3035;49.928;8.410;2023-04-24T05:51:19;4.10;;;2.13;;
6013;SDS011;3035;49.928;8.410;2023-04-24T05:53:48;3.57;;;1.80;;
6013;SDS011;3035;49.928;8.410;2023-04-24T05:56:16;2.80;;;2.10;;
6013;SDS011;3035;49.928;8.410;2023-04-24T05:58:46;3.83;;;1.70;;
6013;SDS011;3035;49.928;8.410;2023-04-24T06:01:14;4.20;;;2.40;;
6013;SDS011;3035;49.928;8.410;2023-04-24T06:03:42;2.13;;;1.93;;
6013;SDS011;3035;49.928;8.410;2023-04-24T06:06:11;2.90;;;2.17;;
6013;SDS011;3035;49.928;8.410;2023-04-24T06:08:39;3.70;;;2.50;;
6013;SDS011;3035;49.928;8.410;2023-04-24T06:11:08;2.40;;;2.20;;
6013;SDS011;3035;49.928;8.410;2023-04-24T06:13:36;2.30;;;2.10;;
6013;SDS011;3035;49.928;8.410;2023-04-24T06:16:05;3.77;;;2.33;;
6013;SDS011;3035;49.928;8.410;2023-04-24T06:18:34;3.10;;;2.80;;
6013;SDS011;3035;49.928;8.410;2023-04-24T06:21:03;3.63;;;2.73;;
6013;SDS011;3035;49.928;8.410;2023-04-24T06:23:31;5.97;;;3.23;;
6013;SDS011;3035;49.928;8.410;2023-04-24T06:26:00;6.30;;;2.70;;
6013;SDS011;3035;49.928;8.410;2023-04-24T06:28:28;3.47;;;2.90;;
6013;SDS011;3035;49.928;8.410;2023-04-24T06:30:56;2.90;;;2.50;;
6013;SDS011;3035;49.928;8.410;2023-04-24T06:33:25;3.00;;;2.63;;
6013;SDS011;3035;49.928;8.410;2023-04-24T06:35:54;8.13;;;3.27;;
6013;SDS011;3035;49.928;8.410;2023-04-24T06:38:22;5.47;;;2.87;;
6013;SDS011;3035;49.928;8.410;2023-04-24T06:40:51;10.70;;;3.10;;
6013;SDS011;3035;49.928;8.410;2023-04-24T06:43:19;4.03;;;3.67;;
6013;SDS011;3035;49.928;8.410;2023-04-24T06:45:47;3.30;;;2.97;;
6013;SDS011;3035;49.928;8.410;2023-04-24T06:48:15;3.90;;;3.30;;
6013;SDS011;3035;49.928;8.410;2023-04-24T06:50:44;4.67;;;2.80;;
6013;SDS011;3035;49.928;8.410;2023-04-24T06:53:12;5.70;;;3.23;;
6013;SDS011;3035;49.928;8.410;2023-04-24T06:55:40;3.30;;;3.00;;
6013;SDS011;3035;49.928;8.410;2023-04-24T06:58:10;3.27;;;2.40;;
6013;SDS011;3035;49.928;8.410;2023-04-24T07:00:38;3.30;;;3.00;;
6013;SDS011;3035;49.928;8.410;2023-04-24T07:03:06;3.03;;;2.83;;
6013;SDS011;3035;49.928;8.410;2023-04-24T07:05:34;3.67;;;3.10;;
6013;SDS011;3035;49.928;8.410;2023-04-24T07:08:02;3.10;;;2.80;;
6013;SDS011;3035;49.928;8.410;2023-04-24T07:10:30;3.33;;;2.87;;
6013;SDS011;3035;49.928;8.410;2023-04-24T07:12:59;4.00;;;3.20;;
6013;SDS011;3035;49.928;8.410;2023-04-24T07:15:27;7.33;;;3.57;;
6013;SDS011;3035;49.928;8.410;2023-04-24T07:17:56;3.03;;;2.83;;
6013;SDS011;3035;49.928;8.410;2023-04-24T07:20:25;4.10;;;2.60;;
6013;SDS011;3035;49.928;8.410;2023-04-24T07:22:54;5.77;;;2.93;;
6013;SDS011;3035;49.928;8.410;2023-04-24T07:25:23;5.80;;;3.13;;
6013;SDS011;3035;49.928;8.410;2023-04-24T07:27:51;4.00;;;2.77;;
6013;SDS011;3035;49.928;8.410;2023-04-24T07:30:19;6.13;;;2.33;;
6013;SDS011;3035;49.928;8.410;2023-04-24T07:32:48;9.53;;;2.67;;
6013;SDS011;3035;49.928;8.410;2023-04-24T07:35:16;6.40;;;2.90;;
6013;SDS011;3035;49.928;8.410;2023-04-24T07:37:44;3.03;;;2.00;;
6013;SDS011;3035;49.928;8.410;2023-04-24T07:40:13;2.70;;;2.50;;
6013;SDS011;3035;49.928;8.410;2023-04-24T07:42:41;5.10;;;2.80;;
6013;SDS011;3035;49.928;8.410;2023-04-24T07:45:10;2.80;;;2.50;;
6013;SDS011;3035;49.928;8.410;2023-04-24T07:47:39;3.20;;;2.30;;
6013;SDS011;3035;49.928;8.410;2023-04-24T07:50:07;5.40;;;2.83;;
6013;SDS011;3035;49.928;8.410;2023-04-24T07:52:36;2.37;;;2.23;;
6013;SDS011;3035;49.928;8.410;2023-04-24T07:55:05;4.40;;;2.53;;
6013;SDS011;3035;49.928;8.410;2023-04-24T07:57:34;2.77;;;2.20;;
6013;SDS011;3035;49.928;8.410;2023-04-24T08:00:03;5.60;;;3.30;;
6013;SDS011;3035;49.928;8.410;2023-04-24T08:02:32;5.40;;;2.80;;
6013;SDS011;3035;49.928;8.410;2023-04-24T08:05:00;2.50;;;2.23;;
6013;SDS011;3035;49.928;8.410;2023-04-24T08:07:29;5.00;;;2.63;;
6013;SDS011;3035;49.928;8.410;2023-04-24T08:09:58;2.83;;;2.20;;
6013;SDS011;3035;49.928;8.410;2023-04-24T08:12:27;2.13;;;1.93;;
6013;SDS011;3035;49.928;8.410;2023-04-24T08:14:55;2.67;;;2.47;;
6013;SDS011;3035;49.928;8.410;2023-04-24T08:17:23;4.33;;;2.87;;
6013;SDS011;3035;49.928;8.410;2023-04-24T08:19:51;1.77;;;1.67;;
6013;SDS011;3035;49.928;8.410;2023-04-24T08:22:20;2.37;;;2.13;;
6013;SDS011;3035;49.928;8.410;2023-04-24T08:24:49;2.20;;;2.00;;
6013;SDS011;3035;49.928;8.410;2023-04-24T08:27:18;3.70;;;1.90;;
6013;SDS011;3035;49.928;8.410;2023-04-24T08:29:48;2.70;;;2.50;;
6013;SDS011;3035;49.928;8.410;2023-04-24T08:32:17;3.23;;;2.00;;
6013;SDS011;3035;49.928;8.410;2023-04-24T08:34:45;6.23;;;1.97;;
6013;SDS011;3035;49.928;8.410;2023-04-24T08:37:14;3.90;;;1.87;;
6013;SDS011;3035;49.928;8.410;2023-04-24T08:39:43;7.40;;;2.57;;
6013;SDS011;3035;49.928;8.410;2023-04-24T08:42:11;5.07;;;2.13;;
6013;SDS011;3035;49.928;8.410;2023-04-24T08:44:39;4.90;;;2.73;;
6013;SDS011;3035;49.928;8.410;2023-04-24T08:47:08;6.20;;;2.43;;
6013;SDS011;3035;49.928;8.410;2023-04-24T08:49:37;6.17;;;2.40;;
6013;SDS011;3035;49.928;8.410;2023-04-24T08:52:05;2.43;;;2.23;;
6013;SDS011;3035;49.928;8.410;2023-04-24T08:54:35;4.53;;;2.70;;
6013;SDS011;3035;49.928;8.410;2023-04-24T08:57:02;2.30;;;2.10;;
6013;SDS011;3035;49.928;8.410;2023-04-24T08:59:31;10.33;;;2.13;;
6013;SDS011;3035;49.928;8.410;2023-04-24T09:01:59;3.53;;;2.63;;
6013;SDS011;3035;49.928;8.410;2023-04-24T09:04:27;3.10;;;2.50;;
6013;SDS011;3035;49.928;8.410;2023-04-24T09:06:55;2.50;;;2.30;;
6013;SDS011;3035;49.928;8.410;2023-04-24T09:09:24;2.43;;;2.23;;
6013;SDS011;3035;49.928;8.410;2023-04-24T09:11:53;2.60;;;2.27;;
6013;SDS011;3035;49.928;8.410;2023-04-24T09:14:22;2.40;;;2.20;;
6013;SDS011;3035;49.928;8.410;2023-04-24T09:16:50;2.03;;;1.83;;
6013;SDS011;3035;49.928;8.410;2023-04-24T09:19:18;2.97;;;1.70;;
6013;SDS011;3035;49.928;8.410;2023-04-24T09:21:47;2.20;;;2.00;;
6013;SDS011;3035;49.928;8.410;2023-04-24T09:24:17;2.23;;;1.80;;
6013;SDS011;3035;49.928;8.410;2023-04-24T09:26:45;2.10;;;1.70;;
6013;SDS011;3035;49.928;8.410;2023-04-24T09:29:16;2.90;;;2.17;;
6013;SDS011;3035;49.928;8.410;2023-04-24T09:31:44;2.30;;;2.10;;
6013;SDS011;3035;49.928;8.410;2023-04-24T09:34:12;2.27;;;1.80;;
6013;SDS011;3035;49.928;8.410;2023-04-24T09:36:41;1.73;;;1.60;;
6013;SDS011;3035;49.928;8.410;2023-04-24T09:39:10;3.63;;;2.17;;
6013;SDS011;3035;49.928;8.410;2023-04-24T09:44:22;3.37;;;1.53;;
6013;SDS011;3035;49.928;8.410;2023-04-24T09:46:53;1.30;;;1.20;;
6013;SDS011;3035;49.928;8.410;2023-04-24T09:49:23;2.70;;;2.00;;
6013;SDS011;3035;49.928;8.410;2023-04-24T09:54:33;5.73;;;1.63;;
6013;SDS011;3035;49.928;8.410;2023-04-24T09:57:01;4.20;;;1.90;;
6013;SDS011;3035;49.928;8.410;2023-04-24T09:59:30;2.23;;;1.30;;
6013;SDS011;3035;49.928;8.410;2023-04-24T10:01:59;1.67;;;1.57;;
6013;SDS011;3035;49.928;8.410;2023-04-24T10:04:28;11.80;;;1.57;;
6013;SDS011;3035;49.928;8.410;2023-04-24T10:06:56;1.57;;;1.47;;
6013;SDS011;3035;49.928;8.410;2023-04-24T10:09:24;1.90;;;1.70;;
6013;SDS011;3035;49.928;8.410;2023-04-24T10:11:53;2.00;;;1.37;;
6013;SDS011;3035;49.928;8.410;2023-04-24T10:14:22;2.00;;;1.80;;
6013;SDS011;3035;49.928;8.410;2023-04-24T10:16:50;2.43;;;1.80;;
6013;SDS011;3035;49.928;8.410;2023-04-24T10:19:18;7.03;;;2.00;;
6013;SDS011;3035;49.928;8.410;2023-04-24T10:21:47;2.20;;;1.73;;
6013;SDS011;3035;49.928;8.410;2023-04-24T10:24:16;1.97;;;1.77;;
6013;SDS011;3035;49.928;8.410;2023-04-24T10:26:45;3.73;;;1.70;;
6013;SDS011;3035;49.928;8.410;2023-04-24T10:29:13;2.07;;;1.60;;
6013;SDS011;3035;49.928;8.410;2023-04-24T10:31:41;3.40;;;1.90;;
6013;SDS011;3035;49.928;8.410;2023-04-24T10:34:09;1.60;;;1.40;;
6013;SDS011;3035;49.928;8.410;2023-04-24T10:36:39;1.70;;;1.60;;
6013;SDS011;3035;49.928;8.410;2023-04-24T10:39:08;2.03;;;1.70;;
6013;SDS011;3035;49.928;8.410;2023-04-24T10:41:36;2.97;;;1.40;;
6013;SDS011;3035;49.928;8.410;2023-04-24T10:44:07;3.03;;;2.07;;
6013;SDS011;3035;49.928;8.410;2023-04-24T10:46:35;3.53;;;2.20;;
6013;SDS011;3035;49.928;8.410;2023-04-24T10:49:04;2.43;;;2.13;;
6013;SDS011;3035;49.928;8.410;2023-04-24T10:54:23;2.70;;;2.20;;
6013;SDS011;3035;49.928;8.410;2023-04-24T10:56:52;4.60;;;2.70;;
6013;SDS011;3035;49.928;8.410;2023-04-24T10:59:26;5.00;;;3.10;;
6013;SDS011;3035;49.928;8.410;2023-04-24T11:01:54;3.90;;;2.23;;
6013;SDS011;3035;49.928;8.410;2023-04-24T11:04:29;3.13;;;2.03;;
6013;SDS011;3035;49.928;8.410;2023-04-24T11:06:57;2.00;;;1.80;;
6013;SDS011;3035;49.928;8.410;2023-04-24T11:09:26;2.00;;;1.90;;
6013;SDS011;3035;49.928;8.410;2023-04-24T11:14:59;2.63;;;1.80;;
6013;SDS011;3035;49.928;8.410;2023-04-24T11:17:28;2.10;;;1.90;;
6013;SDS011;3035;49.928;8.410;2023-04-24T11:20:01;2.10;;;1.90;;
6013;SDS011;3035;49.928;8.410;2023-04-24T11:22:32;3.07;;;1.97;;
6013;SDS011;3035;49.928;8.410;2023-04-24T11:25:00;2.30;;;1.93;;
6013;SDS011;3035;49.928;8.410;2023-04-24T11:27:30;3.57;;;1.90;;
6013;SDS011;3035;49.928;8.410;2023-04-24T11:29:59;1.37;;;1.27;;
6013;SDS011;3035;49.928;8.410;2023-04-24T11:32:28;2.23;;;1.57;;
6013;SDS011;3035;49.928;8.410;2023-04-24T11:35:16;1.50;;;1.40;;
6013;SDS011;3035;49.928;8.410;2023-04-24T11:37:47;1.83;;;1.73;;
6013;SDS011;3035;49.928;8.410;2023-04-24T11:40:16;2.13;;;1.60;;
6013;SDS011;3035;49.928;8.410;2023-04-24T11:42:44;1.67;;;1.47;;
6013;SDS011;3035;49.928;8.410;2023-04-24T11:45:15;4.97;;;1.80;;
6013;SDS011;3035;49.928;8.410;2023-04-24T11:47:42;1.53;;;1.43;;
6013;SDS011;3035;49.928;8.410;2023-04-24T11:50:11;1.20;;;1.10;;
6013;SDS011;3035;49.928;8.410;2023-04-24T11:52:40;2.90;;;1.63;;
6013;SDS011;3035;49.928;8.410;2023-04-24T11:55:09;1.20;;;1.10;;
6013;SDS011;3035;49.928;8.410;2023-04-24T11:57:57;1.70;;;1.60;;
6013;SDS011;3035;49.928;8.410;2023-04-24T12:00:26;1.70;;;1.60;;
6013;SDS011;3035;49.928;8.410;2023-04-24T12:03:06;2.20;;;2.00;;
6013;SDS011;3035;49.928;8.410;2023-04-24T12:05:39;1.77;;;1.67;;
6013;SDS011;3035;49.928;8.410;2023-04-24T12:08:07;1.90;;;1.80;;
6013;SDS011;3035;49.928;8.410;2023-04-24T12:10:36;2.20;;;2.00;;
6013;SDS011;3035;49.928;8.410;2023-04-24T12:13:04;2.23;;;2.00;;
6013;SDS011;3035;49.928;8.410;2023-04-24T12:15:32;2.23;;;2.03;;
6013;SDS011;3035;49.928;8.410;2023-04-24T12:18:03;3.30;;;2.20;;
6013;SDS011;3035;49.928;8.410;2023-04-24T12:20:31;3.40;;;2.47;;
6013;SDS011;3035;49.928;8.410;2023-04-24T12:23:00;6.00;;;2.87;;
6013;SDS011;3035;49.928;8.410;2023-04-24T12:25:29;2.80;;;2.20;;
6013;SDS011;3035;49.928;8.410;2023-04-24T12:28:11;6.17;;;3.07;;
6013;SDS011;3035;49.928;8.410;2023-04-24T12:30:41;2.93;;;2.00;;
6013;SDS011;3035;49.928;8.410;2023-04-24T12:33:10;3.37;;;2.37;;
6013;SDS011;3035;49.928;8.410;2023-04-24T12:35:39;3.27;;;2.77;;
6013;SDS011;3035;49.928;8.410;2023-04-24T12:38:07;5.47;;;2.90;;
6013;SDS011;3035;49.928;8.410;2023-04-24T12:40:36;4.70;;;2.37;;
6013;SDS011;3035;49.928;8.410;2023-04-24T12:45:42;3.40;;;2.47;;
6013;SDS011;3035;49.928;8.410;2023-04-24T12:48:11;6.47;;;2.50;;
6013;SDS011;3035;49.928;8.410;2023-04-24T12:50:39;2.90;;;2.43;;
6013;SDS011;3035;49.928;8.410;2023-04-24T12:53:08;5.80;;;2.77;;
6013;SDS011;3035;49.928;8.410;2023-04-24T12:55:37;6.60;;;2.77;;
6013;SDS011;3035;49.928;8.410;2023-04-24T12:58:05;5.23;;;2.33;;
6013;SDS011;3035;49.928;8.410;2023-04-24T13:00:33;2.70;;;2.33;;
6013;SDS011;3035;49.928;8.410;2023-04-24T13:03:02;3.90;;;2.60;;
6013;SDS011;3035;49.928;8.410;2023-04-24T13:05:32;3.80;;;2.67;;
6013;SDS011;3035;49.928;8.410;2023-04-24T13:08:00;3.43;;;2.40;;
6013;SDS011;3035;49.928;8.410;2023-04-24T13:10:28;4.20;;;2.93;;
6013;SDS011;3035;49.928;8.410;2023-04-24T13:12:57;4.30;;;2.30;;
6013;SDS011;3035;49.928;8.410;2023-04-24T13:15:25;4.70;;;2.50;;
6013;SDS011;3035;49.928;8.410;2023-04-24T13:17:54;2.90;;;2.07;;
6013;SDS011;3035;49.928;8.410;2023-04-24T13:20:22;3.43;;;2.40;;
6013;SDS011;3035;49.928;8.410;2023-04-24T13:22:52;3.57;;;2.63;;
6013;SDS011;3035;49.928;8.410;2023-04-24T13:25:20;5.40;;;3.07;;
6013;SDS011;3035;49.928;8.410;2023-04-24T13:27:48;6.80;;;2.30;;
6013;SDS011;3035;49.928;8.410;2023-04-24T13:30:17;3.80;;;2.57;;
6013;SDS011;3035;49.928;8.410;2023-04-24T13:32:45;3.50;;;2.60;;
6013;SDS011;3035;49.928;8.410;2023-04-24T13:35:14;4.30;;;2.40;;
6013;SDS011;3035;49.928;8.410;2023-04-24T13:37:43;5.40;;;2.67;;
6013;SDS011;3035;49.928;8.410;2023-04-24T13:40:12;9.13;;;3.10;;
6013;SDS011;3035;49.928;8.410;2023-04-24T13:42:40;3.90;;;2.53;;
6013;SDS011;3035;49.928;8.410;2023-04-24T13:45:09;3.60;;;3.17;;
6013;SDS011;3035;49.928;8.410;2023-04-24T13:47:38;5.97;;;2.90;;
6013;SDS011;3035;49.928;8.410;2023-04-24T13:50:07;8.20;;;2.90;;
6013;SDS011;3035;49.928;8.410;2023-04-24T13:52:37;2.90;;;2.63;;
6013;SDS011;3035;49.928;8.410;2023-04-24T13:55:05;4.30;;;2.90;;
6013;SDS011;3035;49.928;8.410;2023-04-24T13:57:35;3.57;;;2.50;;
6013;SDS011;3035;49.928;8.410;2023-04-24T14:00:03;6.53;;;2.43;;
6013;SDS011;3035;49.928;8.410;2023-04-24T14:02:33;2.80;;;2.60;;
6013;SDS011;3035;49.928;8.410;2023-04-24T14:05:01;3.70;;;2.67;;
6013;SDS011;3035;49.928;8.410;2023-04-24T14:07:29;4.43;;;2.40;;
6013;SDS011;3035;49.928;8.410;2023-04-24T14:09:57;4.00;;;2.43;;
6013;SDS011;3035;49.928;8.410;2023-04-24T14:12:26;8.53;;;3.10;;
6013;SDS011;3035;49.928;8.410;2023-04-24T14:14:55;6.33;;;2.83;;
6013;SDS011;3035;49.928;8.410;2023-04-24T14:17:23;2.30;;;2.10;;
6013;SDS011;3035;49.928;8.410;2023-04-24T14:19:52;3.60;;;2.47;;
6013;SDS011;3035;49.928;8.410;2023-04-24T14:22:20;2.90;;;2.33;;
6013;SDS011;3035;49.928;8.410;2023-04-24T14:24:48;4.67;;;2.43;;
6013;SDS011;3035;49.928;8.410;2023-04-24T14:27:17;5.13;;;2.60;;
6013;SDS011;3035;49.928;8.410;2023-04-24T14:29:45;3.43;;;2.60;;
6013;SDS011;3035;49.928;8.410;2023-04-24T14:32:15;4.53;;;2.70;;
6013;SDS011;3035;49.928;8.410;2023-04-24T14:34:43;4.93;;;2.30;;
6013;SDS011;3035;49.928;8.410;2023-04-24T14:37:12;5.03;;;2.90;;
6013;SDS011;3035;49.928;8.410;2023-04-24T14:39:40;5.60;;;2.77;;
6013;SDS011;3035;49.928;8.410;2023-04-24T14:42:08;3.33;;;2.87;;
6013;SDS011;3035;49.928;8.410;2023-04-24T14:44:37;4.70;;;2.40;;
6013;SDS011;3035;49.928;8.410;2023-04-24T14:47:05;5.63;;;2.60;;
6013;SDS011;3035;49.928;8.410;2023-04-24T14:49:33;2.90;;;1.93;;
6013;SDS011;3035;49.928;8.410;2023-04-24T14:52:02;4.27;;;2.10;;
6013;SDS011;3035;49.928;8.410;2023-04-24T14:54:31;3.93;;;2.80;;
6013;SDS011;3035;49.928;8.410;2023-04-24T14:56:59;5.80;;;2.70;;
6013;SDS011;3035;49.928;8.410;2023-04-24T14:59:28;3.87;;;2.63;;
6013;SDS011;3035;49.928;8.410;2023-04-24T15:01:56;5.13;;;2.87;;
6013;SDS011;3035;49.928;8.410;2023-04-24T15:04:25;4.17;;;2.50;;
6013;SDS011;3035;49.928;8.410;2023-04-24T15:06:53;4.80;;;2.70;;
6013;SDS011;3035;49.928;8.410;2023-04-24T15:09:22;5.00;;;2.20;;
6013;SDS011;3035;49.928;8.410;2023-04-24T15:11:50;2.90;;;2.30;;
6013;SDS011;3035;49.928;8.410;2023-04-24T15:14:18;4.67;;;2.63;;
6013;SDS011;3035;49.928;8.410;2023-04-24T15:16:46;2.70;;;2.30;;
6013;SDS011;3035;49.928;8.410;2023-04-24T15:19:15;4.00;;;2.43;;
6013;SDS011;3035;49.928;8.410;2023-04-24T15:21:44;7.77;;;2.43;;
6013;SDS011;3035;49.928;8.410;2023-04-24T15:24:13;4.47;;;2.60;;
6013;SDS011;3035;49.928;8.410;2023-04-24T15:26:41;2.90;;;2.30;;
6013;SDS011;3035;49.928;8.410;2023-04-24T15:29:10;4.33;;;2.60;;
6013;SDS011;3035;49.928;8.410;2023-04-24T15:31:38;3.80;;;2.37;;
6013;SDS011;3035;49.928;8.410;2023-04-24T15:34:07;3.47;;;2.80;;
6013;SDS011;3035;49.928;8.410;2023-04-24T15:36:35;4.63;;;2.43;;
6013;SDS011;3035;49.928;8.410;2023-04-24T15:39:03;6.33;;;3.03;;